createdAt,value
2023-02-14T00:01:20.612Z,38.95
2023-02-14T00:03:49.400Z,40.63
2023-02-14T00:06:17.243Z,41.45
2023-02-14T00:08:44.870Z,40.08
2023-02-14T00:11:13.871Z,35.70
2023-02-14T00:14:01.349Z,42.10
2023-02-14T00:16:28.838Z,41.63
2023-02-14T00:19:05.556Z,38.35
2023-02-14T00:21:38.389Z,41.47
2023-02-14T00:24:08.622Z,34.30
2023-02-14T00:26:38.596Z,41.42
2023-02-14T00:29:12.652Z,39.45
2023-02-14T00:31:40.877Z,38.90
2023-02-14T00:34:09.210Z,36.38
2023-02-14T00:36:37.319Z,34.05
2023-02-14T00:39:06.215Z,37.45
2023-02-14T00:41:34.068Z,37.80
2023-02-14T00:44:02.394Z,39.40
2023-02-14T00:46:29.781Z,41.08
2023-02-14T00:48:57.425Z,39.97
2023-02-14T00:51:24.971Z,33.92
2023-02-14T00:53:52.660Z,38.35
2023-02-14T00:56:20.975Z,34.50
2023-02-14T00:58:48.728Z,34.97
2023-02-14T01:01:19.158Z,35.42
2023-02-14T01:03:46.847Z,34.35
2023-02-14T01:06:14.430Z,36.67
2023-02-14T01:08:41.893Z,38.95
2023-02-14T01:11:16.924Z,34.47
2023-02-14T01:13:47.851Z,41.20
2023-02-14T01:16:17.990Z,40.33
2023-02-14T01:18:46.444Z,36.22
2023-02-14T01:21:27.677Z,40.65
2023-02-14T01:23:58.844Z,37.45
2023-02-14T01:26:27.463Z,34.47
2023-02-14T01:28:56.032Z,44.33
2023-02-14T01:31:26.566Z,38.53
2023-02-14T01:33:54.747Z,38.65
2023-02-14T01:36:29.929Z,43.92
2023-02-14T01:39:00.326Z,40.65
2023-02-14T01:41:31.384Z,36.55
2023-02-14T01:44:02.088Z,39.13
2023-02-14T01:46:32.546Z,39.50
2023-02-14T01:49:09.188Z,37.83
2023-02-14T01:51:41.178Z,37.42
2023-02-14T01:56:41.544Z,36.00
2023-02-14T01:59:12.694Z,41.90
2023-02-14T02:01:44.227Z,37.50
2023-02-14T02:04:15.905Z,40.30
2023-02-14T02:06:47.127Z,39.15
2023-02-14T02:09:27.537Z,42.80
2023-02-14T02:11:55.431Z,40.92
2023-02-14T02:14:23.669Z,36.42
2023-02-14T02:17:10.257Z,40.00
2023-02-14T02:20:10.904Z,37.15
2023-02-14T02:23:19.466Z,38.30
2023-02-14T02:26:15.304Z,42.17
2023-02-14T02:29:09.520Z,37.25
2023-02-14T02:31:45.268Z,40.53
2023-02-14T02:34:40.307Z,43.85
2023-02-14T02:37:28.741Z,35.40
2023-02-14T02:40:07.969Z,37.28
2023-02-14T02:43:16.647Z,39.63
2023-02-14T02:46:14.692Z,37.08
2023-02-14T02:48:59.732Z,37.10
2023-02-14T02:52:18.885Z,40.88
2023-02-14T02:54:55.547Z,38.67
2023-02-14T02:57:29.648Z,37.30
2023-02-14T02:59:59.079Z,41.83
2023-02-14T03:02:57.332Z,34.47
2023-02-14T03:05:27.364Z,26.73
2023-02-14T03:07:54.744Z,34.22
2023-02-14T03:10:27.365Z,34.08
2023-02-14T03:13:19.734Z,30.98
2023-02-14T03:15:51.524Z,34.50
2023-02-14T03:18:22.062Z,33.25
2023-02-14T03:20:55.648Z,34.72
2023-02-14T03:23:32.226Z,35.83
2023-02-14T03:26:01.136Z,36.15
2023-02-14T03:28:45.862Z,32.33
2023-02-14T03:31:33.546Z,30.67
2023-02-14T03:34:14.577Z,36.13
2023-02-14T03:36:50.701Z,33.95
2023-02-14T03:39:27.103Z,30.52
2023-02-14T03:42:06.190Z,38.38
2023-02-14T03:44:36.429Z,31.15
2023-02-14T03:47:13.736Z,32.15
2023-02-14T03:49:46.866Z,36.17
2023-02-14T03:52:15.639Z,37.58
2023-02-14T03:54:46.429Z,31.17
2023-02-14T03:57:20.792Z,39.63
2023-02-14T03:59:48.735Z,38.55
2023-02-14T04:02:21.705Z,34.45
2023-02-14T04:04:51.674Z,31.33
2023-02-14T04:07:22.303Z,35.90
2023-02-14T04:09:50.544Z,36.17
2023-02-14T04:12:32.353Z,38.13
2023-02-14T04:15:03.816Z,39.25
2023-02-14T04:17:50.045Z,38.25
2023-02-14T04:20:17.482Z,32.97
2023-02-14T04:22:46.416Z,36.25
2023-02-14T04:25:14.622Z,31.08
2023-02-14T04:28:01.144Z,36.88
2023-02-14T04:30:28.558Z,41.28
2023-02-14T04:32:55.887Z,41.38
2023-02-14T04:35:23.229Z,43.88
2023-02-14T04:37:50.544Z,45.45
2023-02-14T04:40:18.056Z,39.58
2023-02-14T04:42:46.496Z,42.85
2023-02-14T04:45:14.710Z,37.40
2023-02-14T04:47:42.036Z,35.20
2023-02-14T04:50:10.142Z,41.08
2023-02-14T04:52:37.672Z,42.45
2023-02-14T04:55:05.869Z,46.25
2023-02-14T04:57:33.246Z,43.85
2023-02-14T05:00:00.874Z,39.42
2023-02-14T05:02:28.195Z,41.92
2023-02-14T05:04:55.545Z,43.67
2023-02-14T05:07:22.828Z,50.67
2023-02-14T05:09:50.201Z,41.30
2023-02-14T05:12:17.581Z,44.42
2023-02-14T05:14:45.341Z,39.78
2023-02-14T05:17:12.806Z,40.28
2023-02-14T05:19:40.301Z,39.70
2023-02-14T05:22:07.621Z,45.80
2023-02-14T05:24:37.340Z,42.15
2023-02-14T05:27:04.645Z,39.58
2023-02-14T05:29:31.973Z,39.03
2023-02-14T05:31:59.503Z,42.13
2023-02-14T05:34:27.014Z,39.28
2023-02-14T05:36:54.972Z,44.00
2023-02-14T05:39:24.373Z,42.45
2023-02-14T05:41:51.662Z,43.22
2023-02-14T05:44:19.093Z,49.50
2023-02-14T05:46:46.401Z,35.85
2023-02-14T05:49:13.959Z,37.85
2023-02-14T05:51:41.298Z,44.60
2023-02-14T05:54:10.866Z,37.30
2023-02-14T05:56:38.479Z,36.22
2023-02-14T05:59:05.865Z,35.85
2023-02-14T06:01:33.256Z,38.63
2023-02-14T06:04:00.730Z,44.10
2023-02-14T06:06:28.083Z,49.03
2023-02-14T06:08:55.514Z,37.47
2023-02-14T06:11:22.833Z,44.30
2023-02-14T06:13:50.233Z,39.70
2023-02-14T06:16:18.479Z,44.50
2023-02-14T06:18:45.782Z,38.90
2023-02-14T06:21:13.180Z,44.88
2023-02-14T06:23:40.662Z,46.17
2023-02-14T06:26:08.070Z,44.92
2023-02-14T06:28:35.414Z,36.75
2023-02-14T06:31:03.413Z,40.63
2023-02-14T06:33:32.376Z,44.35
2023-02-14T06:35:59.840Z,45.70
2023-02-14T06:38:27.185Z,38.17
2023-02-14T06:40:54.629Z,45.88
2023-02-14T06:43:22.060Z,46.28
2023-02-14T06:45:49.450Z,41.40
2023-02-14T06:48:16.884Z,39.70
2023-02-14T06:50:44.259Z,45.53
2023-02-14T06:53:11.663Z,43.47
2023-02-14T06:55:43.781Z,43.50
2023-02-14T06:58:11.562Z,53.05
2023-02-14T07:00:39.847Z,48.03
2023-02-14T07:03:08.023Z,46.75
2023-02-14T07:05:35.812Z,48.58
2023-02-14T07:08:03.417Z,47.08
2023-02-14T07:10:30.736Z,44.72
2023-02-14T07:12:58.092Z,44.60
2023-02-14T07:15:25.482Z,45.28
2023-02-14T07:17:53.044Z,50.20
2023-02-14T07:20:20.397Z,43.53
2023-02-14T07:22:49.834Z,49.05
2023-02-14T07:25:17.644Z,45.45
2023-02-14T07:27:45.004Z,47.60
2023-02-14T07:30:12.916Z,46.30
2023-02-14T07:32:42.034Z,42.42
2023-02-14T07:35:09.972Z,43.72
2023-02-14T07:37:37.375Z,42.65
2023-02-14T07:40:08.764Z,40.45
2023-02-14T07:42:41.603Z,38.92
2023-02-14T07:45:20.764Z,40.50
2023-02-14T07:47:50.696Z,39.42
2023-02-14T07:50:18.968Z,33.72
2023-02-14T07:52:46.589Z,42.95
2023-02-14T07:55:14.315Z,38.63
2023-02-14T07:57:41.808Z,33.03
2023-02-14T08:00:09.689Z,40.45
2023-02-14T08:02:40.150Z,30.40
2023-02-14T08:05:07.984Z,38.05
2023-02-14T08:07:35.592Z,38.75
2023-02-14T08:10:02.917Z,40.08
2023-02-14T08:12:48.514Z,36.92
2023-02-14T08:15:35.389Z,35.50
2023-02-14T08:18:02.943Z,38.78
2023-02-14T08:20:30.213Z,39.08
2023-02-14T08:22:58.260Z,32.88
2023-02-14T08:25:43.918Z,33.78
2023-02-14T08:28:11.473Z,33.92
2023-02-14T08:30:38.878Z,34.25
2023-02-14T08:33:07.286Z,34.25
2023-02-14T08:35:35.653Z,33.30
2023-02-14T08:38:03.754Z,43.50
2023-02-14T08:40:31.523Z,34.92
2023-02-14T08:42:58.921Z,33.85
2023-02-14T08:45:26.495Z,38.42
2023-02-14T08:47:53.963Z,38.50
2023-02-14T08:50:21.477Z,36.83
2023-02-14T08:52:49.607Z,36.30
2023-02-14T08:55:17.431Z,35.85
2023-02-14T08:57:44.886Z,38.65
2023-02-14T09:00:32.125Z,47.95
2023-02-14T09:02:59.999Z,36.67
2023-02-14T09:05:27.811Z,38.13
2023-02-14T09:07:56.653Z,40.75
2023-02-14T09:10:26.856Z,36.60
2023-02-14T09:12:54.300Z,31.73
2023-02-14T09:15:21.694Z,31.77
2023-02-14T09:17:49.061Z,31.92
2023-02-14T09:20:16.555Z,33.33
2023-02-14T09:22:44.096Z,36.47
2023-02-14T09:25:12.753Z,33.30
2023-02-14T09:27:40.308Z,30.55
2023-02-14T09:30:09.387Z,39.55
2023-02-14T09:32:36.857Z,40.58
2023-02-14T09:35:04.307Z,38.38
2023-02-14T09:37:50.016Z,43.75
2023-02-14T09:40:20.114Z,36.10
2023-02-14T09:42:53.377Z,42.70
2023-02-14T09:45:24.947Z,32.60
2023-02-14T09:48:07.539Z,31.77
2023-02-14T09:50:54.630Z,34.55
2023-02-14T09:53:25.319Z,32.38
2023-02-14T09:56:17.117Z,33.58
2023-02-14T09:59:05.012Z,29.77
2023-02-14T10:01:54.459Z,27.58
2023-02-14T10:04:30.688Z,29.95
2023-02-14T10:07:12.192Z,27.27
2023-02-14T10:09:54.573Z,36.15
2023-02-14T10:12:34.176Z,33.22
2023-02-14T10:15:10.752Z,35.45
2023-02-14T10:17:47.416Z,34.00
2023-02-14T10:20:21.933Z,31.58
2023-02-14T10:23:05.603Z,37.17
2023-02-14T10:25:48.407Z,34.25
2023-02-14T10:28:28.247Z,30.70
2023-02-14T10:31:13.752Z,33.97
2023-02-14T10:33:45.353Z,34.35
2023-02-14T10:36:32.109Z,36.33
2023-02-14T10:39:12.733Z,41.22
2023-02-14T10:41:40.033Z,39.40
2023-02-14T10:44:28.917Z,32.72
2023-02-14T10:47:07.160Z,37.75
2023-02-14T10:49:47.474Z,35.13
2023-02-14T10:52:25.885Z,35.72
2023-02-14T10:54:56.969Z,34.90
2023-02-14T10:57:31.531Z,33.20
2023-02-14T11:00:06.837Z,36.58
2023-02-14T11:02:40.089Z,37.10
2023-02-14T11:05:10.422Z,40.03
2023-02-14T11:07:37.747Z,40.15
2023-02-14T11:10:14.006Z,41.00
2023-02-14T11:12:41.881Z,34.58
2023-02-14T11:15:09.264Z,35.13
2023-02-14T11:17:37.466Z,35.53
2023-02-14T11:20:22.327Z,35.13
2023-02-14T11:22:51.458Z,26.73
2023-02-14T11:25:23.501Z,27.58
2023-02-14T11:30:28.042Z,27.75
2023-02-14T11:32:56.391Z,29.20
2023-02-14T11:35:30.390Z,29.17
2023-02-14T11:37:58.333Z,30.55
2023-02-14T11:40:27.592Z,26.40
2023-02-14T11:43:12.861Z,25.88
2023-02-14T11:45:43.899Z,20.30
2023-02-14T11:48:36.558Z,21.10
2023-02-14T11:51:15.669Z,19.60
2023-02-14T11:53:53.512Z,19.55
2023-02-14T11:56:22.276Z,21.70
2023-02-14T11:58:58.640Z,17.05
2023-02-14T12:01:30.039Z,19.48
2023-02-14T12:04:01.822Z,13.88
2023-02-14T12:06:32.375Z,14.68
2023-02-14T12:09:23.980Z,15.75
2023-02-14T12:12:19.249Z,17.50
2023-02-14T12:14:46.893Z,17.67
2023-02-14T12:17:37.641Z,16.30
2023-02-14T12:20:14.156Z,21.52
2023-02-14T12:22:49.851Z,20.95
2023-02-14T12:25:25.598Z,20.75
2023-02-14T12:28:03.492Z,21.55
2023-02-14T12:30:35.241Z,21.90
2023-02-14T12:33:04.970Z,21.27
2023-02-14T12:35:54.632Z,19.85
2023-02-14T12:38:47.203Z,24.00
2023-02-14T12:43:56.685Z,28.60
2023-02-14T12:46:41.425Z,23.00
2023-02-14T12:49:27.657Z,29.08
2023-02-14T12:52:15.885Z,32.20
2023-02-14T12:54:55.614Z,24.60
2023-02-14T12:57:35.092Z,30.15
2023-02-14T13:00:24.194Z,30.58
2023-02-14T13:03:07.066Z,33.15
2023-02-14T13:05:42.682Z,31.95
2023-02-14T13:08:34.419Z,36.63
2023-02-14T13:11:16.460Z,39.65
2023-02-14T13:13:52.741Z,38.70
2023-02-14T13:16:44.121Z,37.05
2023-02-14T13:19:50.033Z,35.30
2023-02-14T13:22:21.999Z,36.78
2023-02-14T13:24:58.565Z,37.63
2023-02-14T13:27:34.488Z,43.08
2023-02-14T13:30:12.102Z,37.70
2023-02-14T13:32:42.408Z,48.50
2023-02-14T13:35:17.418Z,39.83
2023-02-14T13:37:52.820Z,43.20
2023-02-14T13:40:26.340Z,53.15
2023-02-14T13:42:56.968Z,41.97
2023-02-14T13:45:32.466Z,41.47
2023-02-14T13:48:22.228Z,41.22
2023-02-14T13:51:06.231Z,54.22
2023-02-14T13:53:45.673Z,52.15
2023-02-14T13:56:13.220Z,48.60
2023-02-14T13:59:04.498Z,47.55
2023-02-14T14:01:42.843Z,47.58
2023-02-14T14:04:28.438Z,60.47
2023-02-14T14:07:04.791Z,59.28
2023-02-14T14:09:44.463Z,56.65
2023-02-14T14:12:27.073Z,60.28
2023-02-14T14:15:06.381Z,55.58
2023-02-14T14:17:40.400Z,57.50
2023-02-14T14:20:16.391Z,64.55
2023-02-14T14:22:58.671Z,55.10
2023-02-14T14:28:00.369Z,54.95
2023-02-14T14:30:32.993Z,53.17
2023-02-14T14:33:26.155Z,54.80
2023-02-14T14:35:54.365Z,58.22
2023-02-14T14:38:22.453Z,54.55
2023-02-14T14:40:51.331Z,58.55
2023-02-14T14:43:31.581Z,55.05
2023-02-14T14:46:02.267Z,54.95
2023-02-14T14:48:38.874Z,54.97
2023-02-14T14:51:08.962Z,59.35
2023-02-14T14:53:59.989Z,60.47
2023-02-14T14:56:31.154Z,55.50
2023-02-14T14:59:15.376Z,55.60
2023-02-14T15:01:44.140Z,52.38
2023-02-14T15:04:16.003Z,53.67
2023-02-14T15:06:43.688Z,58.30
2023-02-14T15:09:16.905Z,56.58
2023-02-14T15:12:05.008Z,57.45
2023-02-14T15:14:36.390Z,55.08
2023-02-14T15:17:13.207Z,63.58
2023-02-14T15:19:44.210Z,59.78
2023-02-14T15:22:19.705Z,59.30
2023-02-14T15:24:48.100Z,106.63
2023-02-14T15:27:18.141Z,78.40
2023-02-14T15:30:00.420Z,63.47
2023-02-14T15:32:32.049Z,59.28
2023-02-14T15:35:03.152Z,58.22
2023-02-14T15:37:32.319Z,65.60
2023-02-14T15:40:01.734Z,66.53
2023-02-14T15:42:33.060Z,60.42
2023-02-14T15:45:19.243Z,58.72
2023-02-14T15:47:49.433Z,62.70
2023-02-14T15:50:24.395Z,57.58
2023-02-14T15:53:02.379Z,60.70
2023-02-14T15:55:31.490Z,63.70
2023-02-14T15:58:06.868Z,64.60
2023-02-14T16:00:35.061Z,63.67
2023-02-14T16:03:07.269Z,60.90
2023-02-14T16:05:34.783Z,70.53
2023-02-14T16:08:08.048Z,67.43
2023-02-14T16:10:37.793Z,65.18
2023-02-14T16:13:18.622Z,62.20
2023-02-14T16:16:06.603Z,62.78
2023-02-14T16:18:44.011Z,67.50
2023-02-14T16:21:15.909Z,80.50
2023-02-14T16:23:46.052Z,68.38
2023-02-14T16:26:14.180Z,67.32
2023-02-14T16:28:43.319Z,69.18
2023-02-14T16:31:16.457Z,75.68
2023-02-14T16:33:44.078Z,72.93
2023-02-14T16:36:30.010Z,71.78
2023-02-14T16:38:58.256Z,77.18
2023-02-14T16:41:28.207Z,73.68
2023-02-14T16:43:59.686Z,78.30
2023-02-14T16:46:31.647Z,79.15
2023-02-14T16:51:29.452Z,73.78
2023-02-14T16:54:00.369Z,78.95
2023-02-14T16:56:33.862Z,76.43
2023-02-14T16:59:01.229Z,75.93
2023-02-14T17:01:28.782Z,72.45
2023-02-14T17:03:56.121Z,75.47
2023-02-14T17:06:27.650Z,78.93
2023-02-14T17:08:57.156Z,89.68
2023-02-14T17:11:26.297Z,87.03
2023-02-14T17:13:54.610Z,85.43
2023-02-14T17:16:22.516Z,82.97
2023-02-14T17:18:52.301Z,84.53
2023-02-14T17:21:21.887Z,82.85
2023-02-14T17:23:49.755Z,84.78
2023-02-14T17:26:18.801Z,85.63
2023-02-14T17:28:46.666Z,84.32
2023-02-14T17:31:14.371Z,81.18
2023-02-14T17:33:41.785Z,84.15
2023-02-14T17:36:12.235Z,89.57
2023-02-14T17:38:40.569Z,85.80
2023-02-14T17:41:23.605Z,83.20
2023-02-14T17:43:52.995Z,91.78
2023-02-14T17:46:21.058Z,91.30
2023-02-14T17:48:49.264Z,89.13
2023-02-14T17:51:20.290Z,87.13
2023-02-14T17:53:48.474Z,88.82
2023-02-14T17:56:22.014Z,93.57
2023-02-14T17:58:51.536Z,97.90
2023-02-14T18:01:22.687Z,86.55
2023-02-14T18:03:52.069Z,95.17
2023-02-14T18:06:19.976Z,87.50
2023-02-14T18:08:49.901Z,90.57
2023-02-14T18:11:19.618Z,88.97
2023-02-14T18:13:47.108Z,84.63
2023-02-14T18:16:18.053Z,94.10
2023-02-14T18:18:45.691Z,82.50
2023-02-14T18:21:15.388Z,90.20
2023-02-14T18:23:43.358Z,98.65
2023-02-14T18:26:13.258Z,91.70
2023-02-14T18:28:41.158Z,84.45
2023-02-14T18:31:14.549Z,86.38
2023-02-14T18:33:42.509Z,92.75
2023-02-14T18:36:15.868Z,86.72
2023-02-14T18:38:45.305Z,92.18
2023-02-14T18:41:15.500Z,91.72
2023-02-14T18:43:44.577Z,100.15
2023-02-14T18:46:15.065Z,91.15
2023-02-14T18:48:49.546Z,92.70
2023-02-14T18:51:23.622Z,88.82
2023-02-14T18:53:52.347Z,91.22
2023-02-14T18:56:23.026Z,84.55
2023-02-14T18:58:53.846Z,94.93
2023-02-14T19:01:24.236Z,87.40
2023-02-14T19:03:52.951Z,95.00
2023-02-14T19:06:22.174Z,93.10
2023-02-14T19:08:49.566Z,94.45
2023-02-14T19:11:19.987Z,96.97
2023-02-14T19:13:50.033Z,95.30
2023-02-14T19:16:20.834Z,96.72
2023-02-14T19:18:49.811Z,99.95
2023-02-14T19:21:20.501Z,98.57
2023-02-14T19:23:48.524Z,95.78
2023-02-14T19:26:18.173Z,93.85
2023-02-14T19:28:47.234Z,97.35
2023-02-14T19:31:15.563Z,95.90
2023-02-14T19:33:45.321Z,92.88
2023-02-14T19:36:17.519Z,100.38
2023-02-14T19:38:48.213Z,83.55
2023-02-14T19:41:19.679Z,89.07
2023-02-14T19:43:48.830Z,81.82
2023-02-14T19:46:17.836Z,81.43
2023-02-14T19:48:46.208Z,81.70
2023-02-14T19:51:21.331Z,78.82
2023-02-14T19:53:49.735Z,80.15
2023-02-14T19:56:21.548Z,73.80
2023-02-14T19:58:50.319Z,78.90
2023-02-14T20:01:32.981Z,70.63
2023-02-14T20:04:00.758Z,80.10
2023-02-14T20:06:29.549Z,68.32
2023-02-14T20:08:57.393Z,76.80
2023-02-14T20:11:33.017Z,77.45
2023-02-14T20:14:01.223Z,76.38
2023-02-14T20:16:30.909Z,71.13
2023-02-14T20:19:00.478Z,77.65
2023-02-14T20:21:28.433Z,75.28
2023-02-14T20:24:01.065Z,75.10
2023-02-14T20:26:31.182Z,77.75
2023-02-14T20:29:00.222Z,81.70
2023-02-14T20:31:27.557Z,74.53
2023-02-14T20:33:56.761Z,72.95
2023-02-14T20:36:24.785Z,79.55
2023-02-14T20:38:56.492Z,69.40
2023-02-14T20:41:24.503Z,74.15
2023-02-14T20:43:52.098Z,69.93
2023-02-14T20:46:19.960Z,78.53
2023-02-14T20:48:47.593Z,70.18
2023-02-14T20:51:17.373Z,76.78
2023-02-14T20:53:46.360Z,81.28
2023-02-14T20:56:15.428Z,67.97
2023-02-14T20:58:43.227Z,70.28
2023-02-14T21:01:13.298Z,67.35
2023-02-14T21:04:01.527Z,66.57
2023-02-14T21:06:32.854Z,67.60
2023-02-14T21:09:01.583Z,65.40
2023-02-14T21:11:31.707Z,63.20
2023-02-14T21:14:01.472Z,61.75
2023-02-14T21:16:30.188Z,59.15
2023-02-14T21:18:59.646Z,61.15
2023-02-14T21:21:35.463Z,65.10
2023-02-14T21:24:11.948Z,65.68
2023-02-14T21:26:39.594Z,62.58
2023-02-14T21:29:08.086Z,60.00
2023-02-14T21:31:36.282Z,70.18
2023-02-14T21:34:04.783Z,59.97
2023-02-14T21:36:35.988Z,59.10
2023-02-14T21:39:04.956Z,63.47
2023-02-14T21:41:32.904Z,63.40
2023-02-14T21:44:02.535Z,66.20
2023-02-14T21:46:36.034Z,62.40
2023-02-14T21:49:23.459Z,61.47
2023-02-14T21:51:51.033Z,64.70
2023-02-14T21:54:18.426Z,64.68
2023-02-14T21:56:45.995Z,65.82
2023-02-14T21:59:13.854Z,58.90
2023-02-14T22:01:42.820Z,61.00
2023-02-14T22:04:12.259Z,68.75
2023-02-14T22:06:41.956Z,63.72
2023-02-14T22:09:12.302Z,57.15
2023-02-14T22:11:39.994Z,64.18
2023-02-14T22:14:07.327Z,68.40
2023-02-14T22:16:36.806Z,72.53
2023-02-14T22:19:05.263Z,65.57
2023-02-14T22:21:33.611Z,63.80
2023-02-14T22:24:01.550Z,59.10
2023-02-14T22:26:31.148Z,55.85
2023-02-14T22:29:00.449Z,59.00
2023-02-14T22:31:33.260Z,55.63
2023-02-14T22:34:00.617Z,53.60
2023-02-14T22:36:27.966Z,65.80
2023-02-14T22:38:55.346Z,58.22
2023-02-14T22:41:24.431Z,60.70
2023-02-14T22:43:53.218Z,65.35
2023-02-14T22:46:28.261Z,65.65
2023-02-14T22:48:56.677Z,66.35
2023-02-14T22:51:28.965Z,63.03
2023-02-14T22:54:02.041Z,68.80
2023-02-14T22:56:35.550Z,59.47
2023-02-14T22:59:06.234Z,56.42
2023-02-14T23:01:35.183Z,63.22
2023-02-14T23:04:03.695Z,63.10
2023-02-14T23:06:33.156Z,64.97
2023-02-14T23:09:02.126Z,67.75
2023-02-14T23:11:32.237Z,59.90
2023-02-14T23:14:18.702Z,67.50
2023-02-14T23:17:04.942Z,76.60
2023-02-14T23:19:53.444Z,75.07
2023-02-14T23:22:27.038Z,72.68
2023-02-14T23:24:59.678Z,75.25
2023-02-14T23:27:34.498Z,77.45
2023-02-14T23:30:03.801Z,82.60
2023-02-14T23:32:31.238Z,86.78
2023-02-14T23:34:58.988Z,78.32
2023-02-14T23:37:26.420Z,82.82
2023-02-14T23:39:53.768Z,87.50
2023-02-14T23:42:21.157Z,78.35
2023-02-14T23:44:50.293Z,86.63
2023-02-14T23:47:17.768Z,90.05
2023-02-14T23:49:45.986Z,83.53
2023-02-14T23:52:13.981Z,78.63
2023-02-14T23:54:41.493Z,66.78
2023-02-14T23:57:09.041Z,83.40
2023-02-14T23:59:36.479Z,74.00
